AVA9471 SKRG-SKCL
Flight info
| Callsign | AVA9471 |
|---|---|
| Flight time | 0h 31m |
| Altitude | 22000 |
| Route | ISVON2B ISVON W3 ULQ ULQ4E |
| Aircraft | A320/M-SDE3FGHIRWY/LB1 |
Departure
| Time | 2026-05-06 17:04 |
|---|---|
| Airport | Jose Maria Córdova International Airport (SKRG) |
Arrival
| Time | 2026-05-06 17:35 |
|---|---|
| Airport | Alfonso Bonilla Aragon International Airport (SKCL) |
| Time | Latitude | Longitude | Altitude | Speed | Heading |
|---|---|---|---|---|---|
| 2026-05-06 16:29 | 6.17106 | -75.42685 | 7016 ft | 0 kts | 280° |
| 2026-05-06 16:43 | 6.17106 | -75.42681 | 7016 ft | 3 kts | 279° |
| 2026-05-06 16:43 | 6.17102 | -75.42659 | 7017 ft | 3 kts | 279° |
| 2026-05-06 16:43 | 6.17101 | -75.42634 | 7019 ft | 4 kts | 251° |
| 2026-05-06 16:44 | 6.17114 | -75.42616 | 7021 ft | 4 kts | 191° |
| 2026-05-06 16:44 | 6.17139 | -75.42616 | 7017 ft | 4 kts | 176° |
| 2026-05-06 16:44 | 6.17166 | -75.42618 | 7018 ft | 4 kts | 177° |
| 2026-05-06 16:44 | 6.17193 | -75.42619 | 7020 ft | 4 kts | 178° |
| 2026-05-06 16:45 | 6.17220 | -75.42619 | 7017 ft | 4 kts | 179° |
| 2026-05-06 16:45 | 6.17247 | -75.42620 | 7017 ft | 4 kts | 179° |
| 2026-05-06 16:45 | 6.17259 | -75.42620 | 7016 ft | 0 kts | 179° |
| 2026-05-06 16:49 | 6.17251 | -75.42620 | 7017 ft | 3 kts | 179° |
| 2026-05-06 16:50 | 6.17211 | -75.42616 | 7019 ft | 8 kts | 159° |
| 2026-05-06 16:50 | 6.17191 | -75.42560 | 7017 ft | 10 kts | 92° |
| 2026-05-06 16:50 | 6.17215 | -75.42492 | 7017 ft | 11 kts | 27° |
| 2026-05-06 16:50 | 6.17283 | -75.42488 | 7021 ft | 9 kts | 360° |
| 2026-05-06 16:51 | 6.17341 | -75.42489 | 7018 ft | 8 kts | 359° |
| 2026-05-06 16:51 | 6.17392 | -75.42489 | 7020 ft | 8 kts | 0° |
| 2026-05-06 16:51 | 6.17460 | -75.42489 | 7018 ft | 11 kts | 359° |
| 2026-05-06 16:51 | 6.17542 | -75.42489 | 7019 ft | 11 kts | 359° |
| 2026-05-06 16:52 | 6.17620 | -75.42490 | 7022 ft | 13 kts | 0° |
| 2026-05-06 16:52 | 6.17717 | -75.42491 | 7025 ft | 15 kts | 359° |
| 2026-05-06 16:52 | 6.17809 | -75.42492 | 7024 ft | 9 kts | 359° |
| 2026-05-06 16:52 | 6.17834 | -75.42492 | 7027 ft | 0 kts | 359° |
| 2026-05-06 16:53 | 6.17837 | -75.42492 | 7026 ft | 2 kts | 359° |
| 2026-05-06 16:53 | 6.17872 | -75.42492 | 7025 ft | 8 kts | 359° |
| 2026-05-06 16:53 | 6.17929 | -75.42493 | 7028 ft | 4 kts | 359° |
| 2026-05-06 16:54 | 6.17955 | -75.42493 | 7027 ft | 5 kts | 360° |
| 2026-05-06 16:54 | 6.17976 | -75.42493 | 7027 ft | 0 kts | 0° |
| 2026-05-06 16:59 | 6.17988 | -75.42493 | 7029 ft | 5 kts | 0° |
| 2026-05-06 17:00 | 6.18025 | -75.42453 | 7029 ft | 12 kts | 88° |
| 2026-05-06 17:00 | 6.18023 | -75.42425 | 7029 ft | 0 kts | 94° |
| 2026-05-06 17:01 | 6.18021 | -75.42393 | 7029 ft | 12 kts | 94° |
| 2026-05-06 17:01 | 6.18014 | -75.42322 | 7029 ft | 6 kts | 137° |
| 2026-05-06 17:02 | 6.17996 | -75.42322 | 7029 ft | 0 kts | 180° |
| 2026-05-06 17:03 | 6.17939 | -75.42322 | 7028 ft | 31 kts | 180° |
| 2026-05-06 17:03 | 6.17469 | -75.42318 | 7023 ft | 100 kts | 179° |
| 2026-05-06 17:03 | 6.16576 | -75.42312 | 7000 ft | 155 kts | 180° |
| 2026-05-06 17:04 | 6.15369 | -75.42310 | 7247 ft | 180 kts | 179° |
| 2026-05-06 17:04 | 6.14123 | -75.42310 | 8119 ft | 178 kts | 178° |
| 2026-05-06 17:04 | 6.12887 | -75.42309 | 8739 ft | 179 kts | 176° |
| 2026-05-06 17:04 | 6.11570 | -75.42304 | 9032 ft | 198 kts | 176° |
| 2026-05-06 17:05 | 6.10175 | -75.42300 | 9538 ft | 203 kts | 177° |
| 2026-05-06 17:05 | 6.08745 | -75.42297 | 10064 ft | 208 kts | 177° |
| 2026-05-06 17:05 | 6.07298 | -75.42320 | 10625 ft | 209 kts | 183° |
| 2026-05-06 17:05 | 6.05895 | -75.42837 | 10968 ft | 229 kts | 210° |
| 2026-05-06 17:06 | 6.04587 | -75.43907 | 11199 ft | 255 kts | 217° |
| 2026-05-06 17:06 | 6.03170 | -75.45118 | 11480 ft | 279 kts | 217° |
| 2026-05-06 17:06 | 6.01634 | -75.46436 | 11748 ft | 302 kts | 217° |
| 2026-05-06 17:06 | 5.99975 | -75.47862 | 11960 ft | 326 kts | 218° |
| 2026-05-06 17:07 | 5.98217 | -75.49372 | 12209 ft | 347 kts | 218° |
| 2026-05-06 17:07 | 5.96352 | -75.50974 | 12747 ft | 356 kts | 218° |
| 2026-05-06 17:07 | 5.94415 | -75.52557 | 13387 ft | 360 kts | 210° |
| 2026-05-06 17:07 | 5.92120 | -75.53519 | 13983 ft | 359 kts | 192° |
| 2026-05-06 17:08 | 5.89678 | -75.54086 | 14412 ft | 361 kts | 187° |
| 2026-05-06 17:08 | 5.87193 | -75.54476 | 14994 ft | 363 kts | 184° |
| 2026-05-06 17:08 | 5.84674 | -75.54796 | 15562 ft | 367 kts | 183° |
| 2026-05-06 17:08 | 5.82121 | -75.55113 | 16146 ft | 372 kts | 184° |
| 2026-05-06 17:09 | 5.79541 | -75.55464 | 16735 ft | 377 kts | 185° |
| 2026-05-06 17:09 | 5.76926 | -75.55856 | 17332 ft | 382 kts | 185° |
| 2026-05-06 17:09 | 5.74290 | -75.56279 | 17936 ft | 386 kts | 186° |
| 2026-05-06 17:09 | 5.71622 | -75.56724 | 18489 ft | 390 kts | 186° |
| 2026-05-06 17:10 | 5.68927 | -75.57179 | 18987 ft | 394 kts | 186° |
| 2026-05-06 17:10 | 5.66213 | -75.57637 | 19520 ft | 397 kts | 187° |
| 2026-05-06 17:10 | 5.63482 | -75.58096 | 20041 ft | 398 kts | 187° |
| 2026-05-06 17:10 | 5.60773 | -75.58546 | 20523 ft | 401 kts | 187° |
| 2026-05-06 17:11 | 5.58007 | -75.59001 | 21033 ft | 404 kts | 187° |
| 2026-05-06 17:11 | 5.55222 | -75.59457 | 21535 ft | 407 kts | 187° |
| 2026-05-06 17:11 | 5.52414 | -75.59916 | 21953 ft | 410 kts | 187° |
| 2026-05-06 17:11 | 5.49600 | -75.60376 | 22064 ft | 407 kts | 187° |
| 2026-05-06 17:12 | 5.46835 | -75.60831 | 22087 ft | 399 kts | 187° |
| 2026-05-06 17:12 | 5.44102 | -75.61283 | 22104 ft | 397 kts | 187° |
| 2026-05-06 17:12 | 5.41376 | -75.61738 | 22102 ft | 397 kts | 189° |
| 2026-05-06 17:12 | 5.38711 | -75.62478 | 22103 ft | 399 kts | 198° |
| 2026-05-06 17:13 | 5.36088 | -75.63396 | 22104 ft | 399 kts | 198° |
| 2026-05-06 17:13 | 5.33469 | -75.64316 | 22095 ft | 399 kts | 198° |
| 2026-05-06 17:13 | 5.30849 | -75.65233 | 22121 ft | 399 kts | 197° |
| 2026-05-06 17:13 | 5.28228 | -75.66145 | 22138 ft | 398 kts | 197° |
| 2026-05-06 17:14 | 5.25607 | -75.67057 | 22150 ft | 398 kts | 197° |
| 2026-05-06 17:14 | 5.22991 | -75.67968 | 22163 ft | 398 kts | 197° |
| 2026-05-06 17:14 | 5.20372 | -75.68880 | 22175 ft | 398 kts | 197° |
| 2026-05-06 17:14 | 5.17755 | -75.69793 | 22182 ft | 398 kts | 197° |
| 2026-05-06 17:15 | 5.15137 | -75.70705 | 22192 ft | 398 kts | 197° |
| 2026-05-06 17:15 | 5.12547 | -75.71605 | 22191 ft | 399 kts | 197° |
| 2026-05-06 17:15 | 5.09926 | -75.72517 | 22190 ft | 399 kts | 197° |
| 2026-05-06 17:15 | 5.07308 | -75.73432 | 22185 ft | 399 kts | 197° |
| 2026-05-06 17:16 | 5.04684 | -75.74349 | 22180 ft | 399 kts | 197° |
| 2026-05-06 17:16 | 5.02060 | -75.75266 | 22180 ft | 399 kts | 197° |
| 2026-05-06 17:16 | 4.99437 | -75.76179 | 22168 ft | 399 kts | 197° |
| 2026-05-06 17:16 | 4.96813 | -75.77090 | 22154 ft | 399 kts | 197° |
| 2026-05-06 17:17 | 4.94185 | -75.78006 | 22142 ft | 399 kts | 197° |
| 2026-05-06 17:17 | 4.91562 | -75.78923 | 22133 ft | 399 kts | 198° |
| 2026-05-06 17:17 | 4.88930 | -75.79844 | 22139 ft | 399 kts | 198° |
| 2026-05-06 17:17 | 4.86310 | -75.80760 | 22141 ft | 399 kts | 198° |
| 2026-05-06 17:18 | 4.83689 | -75.81677 | 22141 ft | 399 kts | 198° |
| 2026-05-06 17:18 | 4.81070 | -75.82595 | 22141 ft | 399 kts | 198° |
| 2026-05-06 17:18 | 4.78458 | -75.83545 | 22141 ft | 399 kts | 202° |
| 2026-05-06 17:18 | 4.75987 | -75.84820 | 22141 ft | 400 kts | 208° |
| 2026-05-06 17:19 | 4.73557 | -75.86178 | 22137 ft | 400 kts | 208° |
| 2026-05-06 17:19 | 4.71128 | -75.87539 | 22136 ft | 399 kts | 208° |
| 2026-05-06 17:19 | 4.68703 | -75.88899 | 22131 ft | 399 kts | 208° |
| 2026-05-06 17:19 | 4.66314 | -75.90237 | 22125 ft | 399 kts | 208° |
| 2026-05-06 17:20 | 4.63886 | -75.91593 | 22107 ft | 399 kts | 208° |
| 2026-05-06 17:20 | 4.61463 | -75.92947 | 22097 ft | 399 kts | 208° |
| 2026-05-06 17:20 | 4.59038 | -75.94301 | 22066 ft | 399 kts | 208° |
| 2026-05-06 17:20 | 4.56613 | -75.95658 | 22069 ft | 399 kts | 208° |
| 2026-05-06 17:21 | 4.55004 | -75.96558 | 22070 ft | 399 kts | 208° |
| 2026-05-06 17:21 | 4.52581 | -75.97914 | 22071 ft | 399 kts | 208° |
| 2026-05-06 17:21 | 4.50157 | -75.99272 | 22072 ft | 402 kts | 208° |
| 2026-05-06 17:21 | 4.47685 | -76.00656 | 22071 ft | 410 kts | 208° |
| 2026-05-06 17:22 | 4.45182 | -76.02054 | 22073 ft | 412 kts | 208° |
| 2026-05-06 17:22 | 4.42680 | -76.03452 | 22085 ft | 413 kts | 207° |
| 2026-05-06 17:22 | 4.40167 | -76.04862 | 22093 ft | 414 kts | 207° |
| 2026-05-06 17:22 | 4.37653 | -76.06274 | 22092 ft | 415 kts | 207° |
| 2026-05-06 17:23 | 4.35134 | -76.07692 | 22080 ft | 415 kts | 207° |
| 2026-05-06 17:23 | 4.32614 | -76.09110 | 22079 ft | 415 kts | 207° |
| 2026-05-06 17:23 | 4.30097 | -76.10525 | 22079 ft | 415 kts | 207° |
| 2026-05-06 17:23 | 4.27576 | -76.11941 | 22074 ft | 415 kts | 207° |
| 2026-05-06 17:24 | 4.25078 | -76.13346 | 21476 ft | 406 kts | 207° |
| 2026-05-06 17:24 | 4.22633 | -76.14729 | 20545 ft | 401 kts | 208° |
| 2026-05-06 17:24 | 4.20224 | -76.16095 | 19701 ft | 395 kts | 208° |
| 2026-05-06 17:24 | 4.17882 | -76.17424 | 18889 ft | 390 kts | 207° |
| 2026-05-06 17:25 | 4.15537 | -76.18754 | 18039 ft | 385 kts | 207° |
| 2026-05-06 17:25 | 4.13226 | -76.20065 | 17171 ft | 379 kts | 207° |
| 2026-05-06 17:25 | 4.10947 | -76.21361 | 16335 ft | 374 kts | 207° |
| 2026-05-06 17:25 | 4.08669 | -76.22565 | 15492 ft | 366 kts | 200° |
| 2026-05-06 17:26 | 4.06328 | -76.23518 | 14689 ft | 361 kts | 199° |
| 2026-05-06 17:26 | 4.04015 | -76.24452 | 13907 ft | 356 kts | 199° |
| 2026-05-06 17:26 | 4.01723 | -76.25374 | 12786 ft | 357 kts | 199° |
| 2026-05-06 17:26 | 3.99385 | -76.26311 | 11315 ft | 367 kts | 200° |
| 2026-05-06 17:27 | 3.96990 | -76.27274 | 9963 ft | 373 kts | 201° |
| 2026-05-06 17:27 | 3.94643 | -76.28225 | 9466 ft | 349 kts | 201° |
| 2026-05-06 17:27 | 3.92494 | -76.29102 | 9337 ft | 319 kts | 201° |
| 2026-05-06 17:27 | 3.90522 | -76.29907 | 9180 ft | 295 kts | 201° |
| 2026-05-06 17:28 | 3.88629 | -76.30674 | 8572 ft | 290 kts | 201° |
| 2026-05-06 17:28 | 3.86809 | -76.31409 | 8342 ft | 272 kts | 201° |
| 2026-05-06 17:28 | 3.85121 | -76.32090 | 8218 ft | 252 kts | 201° |
| 2026-05-06 17:28 | 3.83548 | -76.32725 | 8105 ft | 237 kts | 201° |
| 2026-05-06 17:29 | 3.82028 | -76.33315 | 8021 ft | 232 kts | 195° |
| 2026-05-06 17:29 | 3.80446 | -76.33651 | 7804 ft | 233 kts | 189° |
| 2026-05-06 17:29 | 3.78879 | -76.33922 | 7519 ft | 229 kts | 189° |
| 2026-05-06 17:29 | 3.77333 | -76.34187 | 7290 ft | 221 kts | 189° |
| 2026-05-06 17:30 | 3.75845 | -76.34442 | 7029 ft | 213 kts | 190° |
| 2026-05-06 17:30 | 3.74447 | -76.34681 | 6816 ft | 193 kts | 190° |
| 2026-05-06 17:30 | 3.73202 | -76.34895 | 6604 ft | 172 kts | 190° |
| 2026-05-06 17:30 | 3.72077 | -76.35088 | 6405 ft | 158 kts | 190° |
| 2026-05-06 17:31 | 3.71011 | -76.35274 | 6206 ft | 154 kts | 190° |
| 2026-05-06 17:31 | 3.69958 | -76.35456 | 6012 ft | 153 kts | 191° |
| 2026-05-06 17:31 | 3.68914 | -76.35636 | 5798 ft | 152 kts | 192° |
| 2026-05-06 17:31 | 3.67875 | -76.35814 | 5598 ft | 151 kts | 191° |
| 2026-05-06 17:32 | 3.66841 | -76.35994 | 5397 ft | 151 kts | 192° |
| 2026-05-06 17:32 | 3.65809 | -76.36172 | 5206 ft | 150 kts | 192° |
| 2026-05-06 17:32 | 3.64782 | -76.36349 | 5009 ft | 149 kts | 191° |
| 2026-05-06 17:32 | 3.63757 | -76.36527 | 4812 ft | 150 kts | 191° |
| 2026-05-06 17:33 | 3.62732 | -76.36707 | 4612 ft | 150 kts | 190° |
| 2026-05-06 17:33 | 3.61701 | -76.36888 | 4401 ft | 150 kts | 190° |
| 2026-05-06 17:33 | 3.60671 | -76.37069 | 4190 ft | 150 kts | 189° |
| 2026-05-06 17:33 | 3.59643 | -76.37250 | 3978 ft | 150 kts | 189° |
| 2026-05-06 17:34 | 3.58617 | -76.37431 | 3791 ft | 149 kts | 190° |
| 2026-05-06 17:34 | 3.57605 | -76.37607 | 3597 ft | 149 kts | 191° |
| 2026-05-06 17:34 | 3.56585 | -76.37778 | 3395 ft | 148 kts | 190° |
| 2026-05-06 17:34 | 3.55576 | -76.37950 | 3209 ft | 146 kts | 191° |
| 2026-05-06 17:35 | 3.54644 | -76.38109 | 3164 ft | 117 kts | 189° |
| 2026-05-06 17:35 | 3.54011 | -76.38220 | 3168 ft | 69 kts | 189° |
| 2026-05-06 17:35 | 3.53653 | -76.38281 | 3163 ft | 33 kts | 188° |
| 2026-05-06 17:36 | 3.53539 | -76.38405 | 3161 ft | 12 kts | 280° |
| 2026-05-06 17:36 | 3.53548 | -76.38455 | 3161 ft | 0 kts | 281° |
| 2026-05-06 17:36 | 3.53550 | -76.38456 | 3161 ft | 0 kts | 303° |
| 2026-05-06 17:37 | 3.53562 | -76.38456 | 3162 ft | 6 kts | 353° |
| 2026-05-06 17:37 | 3.53601 | -76.38461 | 3164 ft | 6 kts | 352° |
| 2026-05-06 17:37 | 3.53668 | -76.38494 | 3163 ft | 14 kts | 325° |
| 2026-05-06 17:37 | 3.53680 | -76.38502 | 3163 ft | 0 kts | 324° |
| 2026-05-06 17:38 | 3.53685 | -76.38506 | 3164 ft | 4 kts | 325° |
| 2026-05-06 17:38 | 3.53732 | -76.38538 | 3163 ft | 12 kts | 325° |
| 2026-05-06 17:38 | 3.53805 | -76.38591 | 3163 ft | 12 kts | 324° |
| 2026-05-06 17:39 | 3.53827 | -76.38659 | 3163 ft | 12 kts | 264° |
| 2026-05-06 17:39 | 3.53823 | -76.38701 | 3163 ft | 3 kts | 265° |